createdAt,value
2023-05-10T00:01:13.953Z,10.93
2023-05-10T00:03:42.281Z,10.99
2023-05-10T00:06:10.558Z,11.09
2023-05-10T00:08:38.799Z,11.15
2023-05-10T00:11:06.848Z,11.16
2023-05-10T00:13:34.918Z,11.15
2023-05-10T00:16:03.032Z,11.17
2023-05-10T00:18:31.283Z,11.11
2023-05-10T00:20:59.458Z,11.04
2023-05-10T00:23:27.532Z,10.99
2023-05-10T00:25:55.718Z,11.05
2023-05-10T00:28:25.513Z,10.98
2023-05-10T00:30:53.592Z,10.94
2023-05-10T00:33:22.072Z,11.03
2023-05-10T00:35:50.750Z,11.10
2023-05-10T00:38:18.811Z,11.17
2023-05-10T00:40:47.581Z,11.22
2023-05-10T00:43:22.082Z,11.15
2023-05-10T00:45:50.974Z,11.05
2023-05-10T00:48:20.012Z,11.01
2023-05-10T00:50:48.498Z,11.09
2023-05-10T00:53:17.356Z,11.12
2023-05-10T00:55:45.944Z,11.15
2023-05-10T00:58:14.339Z,11.14
2023-05-10T01:00:44.585Z,11.10
2023-05-10T01:03:13.069Z,11.00
2023-05-10T01:05:41.321Z,10.98
2023-05-10T01:08:09.923Z,10.99
2023-05-10T01:10:38.389Z,11.04
2023-05-10T01:13:06.666Z,11.08
2023-05-10T01:15:35.573Z,11.10
2023-05-10T01:18:04.358Z,11.04
2023-05-10T01:20:41.215Z,10.85
2023-05-10T01:23:35.393Z,10.79
2023-05-10T01:26:23.843Z,10.83
2023-05-10T01:28:54.576Z,10.76
2023-05-10T01:31:42.831Z,10.47
2023-05-10T01:34:21.952Z,10.24
2023-05-10T01:37:00.395Z,9.99
2023-05-10T01:39:37.407Z,9.93
2023-05-10T01:42:12.692Z,9.76
2023-05-10T01:44:58.826Z,9.54
2023-05-10T01:48:12.091Z,9.27
2023-05-10T01:50:44.373Z,9.17
2023-05-10T01:53:19.127Z,9.10
2023-05-10T01:55:53.967Z,9.08
2023-05-10T01:58:30.587Z,9.05
2023-05-10T02:01:02.713Z,8.94
2023-05-10T02:03:33.864Z,8.95
2023-05-10T02:06:03.335Z,9.04
2023-05-10T02:08:34.172Z,9.07
2023-05-10T02:11:05.052Z,9.05
2023-05-10T02:13:37.114Z,9.08
2023-05-10T02:16:06.718Z,9.19
2023-05-10T02:18:38.079Z,9.32
2023-05-10T02:21:06.937Z,9.42
2023-05-10T02:23:36.330Z,9.47
2023-05-10T02:26:07.105Z,9.44
2023-05-10T02:28:37.186Z,9.36
2023-05-10T02:31:07.760Z,9.22
2023-05-10T02:33:36.456Z,9.09
2023-05-10T02:36:05.394Z,9.09
2023-05-10T02:38:36.083Z,9.11
2023-05-10T02:41:06.970Z,9.11
2023-05-10T02:43:36.663Z,9.26
2023-05-10T02:46:05.094Z,9.38
2023-05-10T02:48:33.990Z,9.43
2023-05-10T02:51:08.145Z,9.38
2023-05-10T02:53:39.743Z,9.43
2023-05-10T02:56:15.778Z,9.39
2023-05-10T02:58:43.950Z,9.29
2023-05-10T03:01:12.054Z,9.15
2023-05-10T03:03:40.236Z,9.10
2023-05-10T03:06:09.426Z,9.07
2023-05-10T03:08:38.215Z,8.97
2023-05-10T03:11:50.933Z,8.96
2023-05-10T03:14:46.299Z,9.04
2023-05-10T03:17:56.769Z,9.47
2023-05-10T03:20:37.766Z,10.13
2023-05-10T03:23:14.681Z,10.54
2023-05-10T03:25:44.891Z,10.86
2023-05-10T03:28:13.841Z,11.22
2023-05-10T03:30:43.953Z,11.71
2023-05-10T03:33:13.924Z,11.88
2023-05-10T03:35:46.737Z,12.17
2023-05-10T03:38:15.261Z,12.71
2023-05-10T03:40:43.487Z,13.27
2023-05-10T03:43:11.710Z,14.02
2023-05-10T03:45:40.066Z,14.77
2023-05-10T03:48:08.474Z,15.33
2023-05-10T03:50:36.663Z,15.52
2023-05-10T03:53:05.003Z,15.96
2023-05-10T03:55:37.205Z,16.49
2023-05-10T03:58:05.463Z,16.78
2023-05-10T04:00:34.353Z,17.08
2023-05-10T04:03:02.766Z,17.53
2023-05-10T04:05:31.333Z,18.08
2023-05-10T04:07:59.790Z,18.60
2023-05-10T04:10:27.822Z,18.74
2023-05-10T04:12:55.973Z,19.13
2023-05-10T04:15:24.624Z,19.57
2023-05-10T04:17:52.817Z,19.89
2023-05-10T04:20:21.064Z,20.21
2023-05-10T04:22:49.263Z,20.45
2023-05-10T04:25:18.236Z,20.74
2023-05-10T04:27:46.234Z,21.05
2023-05-10T04:30:14.560Z,21.48
2023-05-10T04:32:43.070Z,21.87
2023-05-10T04:35:12.031Z,22.26
2023-05-10T04:37:40.222Z,22.48
2023-05-10T04:40:09.220Z,22.86
2023-05-10T04:42:37.292Z,23.16
2023-05-10T04:45:06.207Z,23.36
2023-05-10T04:47:34.148Z,23.29
2023-05-10T04:50:02.512Z,23.43
2023-05-10T04:52:30.686Z,23.56
2023-05-10T04:54:59.238Z,23.36
2023-05-10T04:57:27.455Z,23.45
2023-05-10T04:59:55.619Z,23.68
2023-05-10T05:02:24.778Z,23.69
2023-05-10T05:04:52.967Z,23.79
2023-05-10T05:07:21.134Z,24.00
2023-05-10T05:09:49.163Z,24.15
2023-05-10T05:12:17.566Z,24.31
2023-05-10T05:14:46.000Z,24.44
2023-05-10T05:17:14.243Z,24.38
2023-05-10T05:19:42.641Z,24.41
2023-05-10T05:22:10.733Z,24.76
2023-05-10T05:24:39.356Z,24.75
2023-05-10T05:27:08.082Z,24.98
2023-05-10T05:29:36.153Z,24.93
2023-05-10T05:32:05.127Z,24.96
2023-05-10T05:34:33.771Z,24.99
2023-05-10T05:37:01.804Z,24.78
2023-05-10T05:39:29.816Z,24.55
2023-05-10T05:41:57.813Z,24.41
2023-05-10T05:44:26.663Z,24.31
2023-05-10T05:46:54.809Z,24.40
2023-05-10T05:49:23.148Z,24.53
2023-05-10T05:51:51.496Z,24.48
2023-05-10T05:54:19.729Z,24.66
2023-05-10T05:56:48.023Z,24.55
2023-05-10T05:59:16.197Z,24.37
2023-05-10T06:01:44.313Z,24.24
2023-05-10T06:04:13.663Z,24.13
2023-05-10T06:06:42.276Z,24.01
2023-05-10T06:09:11.023Z,24.05
2023-05-10T06:11:39.575Z,23.71
2023-05-10T06:14:09.183Z,23.31
2023-05-10T06:16:37.919Z,23.15
2023-05-10T06:19:06.282Z,23.14
2023-05-10T06:21:34.528Z,22.83
2023-05-10T06:24:04.041Z,22.71
2023-05-10T06:26:32.136Z,22.72
2023-05-10T06:29:00.512Z,22.92
2023-05-10T06:31:28.699Z,23.15
2023-05-10T06:33:57.005Z,23.20
2023-05-10T06:36:27.465Z,23.37
2023-05-10T06:38:56.105Z,23.64
2023-05-10T06:41:24.994Z,23.71
2023-05-10T06:43:53.130Z,23.05
2023-05-10T06:46:21.530Z,22.56
2023-05-10T06:48:49.580Z,22.88
2023-05-10T06:51:18.867Z,22.79
2023-05-10T06:53:46.950Z,21.27
2023-05-10T06:56:15.245Z,20.55
2023-05-10T06:58:43.736Z,20.05
2023-05-10T07:01:12.026Z,19.53
2023-05-10T07:03:40.258Z,19.45
2023-05-10T07:06:15.668Z,18.80
2023-05-10T07:08:47.051Z,19.26
2023-05-10T07:11:15.160Z,19.98
2023-05-10T07:13:45.393Z,20.17
2023-05-10T07:16:13.635Z,20.65
2023-05-10T07:18:42.069Z,20.98
2023-05-10T07:21:10.281Z,21.04
2023-05-10T07:23:38.751Z,21.08
2023-05-10T07:26:07.053Z,20.73
2023-05-10T07:28:37.697Z,20.38
2023-05-10T07:31:06.053Z,20.26
2023-05-10T07:33:34.258Z,20.74
2023-05-10T07:36:02.374Z,20.90
2023-05-10T07:38:30.502Z,20.75
2023-05-10T07:40:58.898Z,21.18
2023-05-10T07:43:27.059Z,21.90
2023-05-10T07:45:56.388Z,22.17
2023-05-10T07:48:24.724Z,22.54
2023-05-10T07:50:52.914Z,22.93
2023-05-10T07:53:21.194Z,23.12
2023-05-10T07:55:53.014Z,23.47
2023-05-10T07:58:21.096Z,23.83
2023-05-10T08:00:50.393Z,23.74
2023-05-10T08:03:18.703Z,23.84
2023-05-10T08:05:47.417Z,23.86
2023-05-10T08:08:16.039Z,23.81
2023-05-10T08:10:44.225Z,23.66
2023-05-10T08:13:12.248Z,22.12
2023-05-10T08:15:40.794Z,21.53
2023-05-10T08:18:09.033Z,21.33
2023-05-10T08:20:37.302Z,21.25
2023-05-10T08:23:05.514Z,21.63
2023-05-10T08:25:33.893Z,22.19
2023-05-10T08:28:01.963Z,22.37
2023-05-10T08:30:30.383Z,22.77
2023-05-10T08:32:58.659Z,23.47
2023-05-10T08:35:27.152Z,23.99
2023-05-10T08:37:55.432Z,24.24
2023-05-10T08:40:27.264Z,23.93
2023-05-10T08:43:16.566Z,23.47
2023-05-10T08:45:48.651Z,23.47
2023-05-10T08:48:18.118Z,23.60
2023-05-10T08:50:46.398Z,23.88
2023-05-10T08:53:16.436Z,24.16
2023-05-10T08:55:44.594Z,22.80
2023-05-10T08:58:13.074Z,22.02
2023-05-10T09:00:41.259Z,21.63
2023-05-10T09:03:10.340Z,21.81
2023-05-10T09:05:38.844Z,22.17
2023-05-10T09:08:09.163Z,22.75
2023-05-10T09:10:39.646Z,22.77
2023-05-10T09:13:11.009Z,22.26
2023-05-10T09:15:40.129Z,20.32
2023-05-10T09:18:08.386Z,20.65
2023-05-10T09:20:36.719Z,21.73
2023-05-10T09:23:04.829Z,21.78
2023-05-10T09:25:36.111Z,21.89
2023-05-10T09:28:07.688Z,22.00
2023-05-10T09:30:36.728Z,22.39
2023-05-10T09:33:05.210Z,22.77
2023-05-10T09:35:34.548Z,21.77
2023-05-10T09:38:05.368Z,20.19
2023-05-10T09:40:33.563Z,18.57
2023-05-10T09:43:02.616Z,18.11
2023-05-10T09:45:31.577Z,17.99
2023-05-10T09:48:01.863Z,18.53
2023-05-10T09:50:31.189Z,19.08
2023-05-10T09:53:01.441Z,19.26
2023-05-10T09:55:47.683Z,19.17
2023-05-10T09:58:16.360Z,18.80
2023-05-10T10:00:46.413Z,19.00
2023-05-10T10:03:17.388Z,19.60
2023-05-10T10:05:47.302Z,19.80
2023-05-10T10:08:17.793Z,20.09
2023-05-10T10:10:47.597Z,20.86
2023-05-10T10:13:16.667Z,21.69
2023-05-10T10:15:45.729Z,20.22
2023-05-10T10:18:17.908Z,19.23
2023-05-10T10:20:46.801Z,18.80
2023-05-10T10:23:17.324Z,18.91
2023-05-10T10:25:49.927Z,18.89
2023-05-10T10:28:18.586Z,18.82
2023-05-10T10:30:49.729Z,19.10
2023-05-10T10:33:36.813Z,19.45
2023-05-10T10:36:05.781Z,19.90
2023-05-10T10:38:49.034Z,19.98
2023-05-10T10:41:32.650Z,20.39
2023-05-10T10:44:33.361Z,20.62
2023-05-10T10:47:06.676Z,20.19
2023-05-10T10:49:39.172Z,20.07
2023-05-10T10:52:24.295Z,20.62
2023-05-10T10:55:20.294Z,21.16
2023-05-10T10:57:49.895Z,21.46
2023-05-10T11:00:31.987Z,21.84
2023-05-10T11:03:08.265Z,21.58
2023-05-10T11:05:52.320Z,21.57
2023-05-10T11:08:21.199Z,21.90
2023-05-10T11:11:01.337Z,22.34
2023-05-10T11:13:34.954Z,22.23
2023-05-10T11:16:28.178Z,21.80
2023-05-10T11:19:09.333Z,20.75
2023-05-10T11:22:12.287Z,20.66
2023-05-10T11:24:40.548Z,20.66
2023-05-10T11:27:09.076Z,20.84
2023-05-10T11:29:37.416Z,20.98
2023-05-10T11:32:09.456Z,21.21
2023-05-10T11:34:38.054Z,21.46
2023-05-10T11:37:06.279Z,21.46
2023-05-10T11:39:34.729Z,20.81
2023-05-10T11:42:03.193Z,20.42
2023-05-10T11:44:32.659Z,20.53
2023-05-10T11:47:02.259Z,20.55
2023-05-10T11:49:31.042Z,20.53
2023-05-10T11:52:09.407Z,20.52
2023-05-10T11:54:37.550Z,20.79
2023-05-10T11:57:06.003Z,21.10
2023-05-10T11:59:34.292Z,21.11
2023-05-10T12:02:03.323Z,21.05
2023-05-10T12:04:32.407Z,21.13
2023-05-10T12:07:00.702Z,21.27
2023-05-10T12:09:42.632Z,21.20
2023-05-10T12:12:18.110Z,20.96
2023-05-10T12:14:51.564Z,20.40
2023-05-10T12:17:19.592Z,19.98
2023-05-10T12:19:48.319Z,20.11
2023-05-10T12:22:16.327Z,20.48
2023-05-10T12:24:46.646Z,20.73
2023-05-10T12:27:15.981Z,20.63
2023-05-10T12:29:47.278Z,20.69
2023-05-10T12:32:15.419Z,20.69
2023-05-10T12:34:43.534Z,20.44
2023-05-10T12:37:11.752Z,20.64
2023-05-10T12:39:45.363Z,20.85
2023-05-10T12:42:13.422Z,20.27
2023-05-10T12:44:41.594Z,19.81
2023-05-10T12:47:09.751Z,19.69
2023-05-10T12:49:37.844Z,19.93
2023-05-10T12:52:05.999Z,20.11
2023-05-10T12:54:34.287Z,19.97
2023-05-10T12:57:02.484Z,20.03
2023-05-10T12:59:30.874Z,20.31
2023-05-10T13:01:59.400Z,20.60
2023-05-10T13:04:27.716Z,20.80
2023-05-10T13:06:59.908Z,20.94
2023-05-10T13:09:30.761Z,21.02
2023-05-10T13:11:59.099Z,20.62
2023-05-10T13:14:27.747Z,20.13
2023-05-10T13:16:55.959Z,20.38
2023-05-10T13:19:24.525Z,20.72
2023-05-10T13:21:53.101Z,21.08
2023-05-10T13:24:21.563Z,21.35
2023-05-10T13:26:49.869Z,21.10
2023-05-10T13:29:19.243Z,20.79
2023-05-10T13:31:47.465Z,20.99
2023-05-10T13:34:15.798Z,21.11
2023-05-10T13:36:43.794Z,20.94
2023-05-10T13:39:12.062Z,20.73
2023-05-10T13:41:40.147Z,20.03
2023-05-10T13:44:08.507Z,20.14
2023-05-10T13:46:36.799Z,20.05
2023-05-10T13:49:05.947Z,19.99
2023-05-10T13:51:35.287Z,19.82
2023-05-10T13:54:04.479Z,19.81
2023-05-10T13:56:32.495Z,19.94
2023-05-10T13:59:00.651Z,20.13
2023-05-10T14:01:28.764Z,20.27
2023-05-10T14:03:57.317Z,20.19
2023-05-10T14:06:25.873Z,20.01
2023-05-10T14:08:55.130Z,19.86
2023-05-10T14:11:24.819Z,20.05
2023-05-10T14:13:53.075Z,20.26
2023-05-10T14:16:21.720Z,20.33
2023-05-10T14:18:50.333Z,20.26
2023-05-10T14:21:18.892Z,19.54
2023-05-10T14:23:47.109Z,19.10
2023-05-10T14:26:15.346Z,19.29
2023-05-10T14:28:43.798Z,19.47
2023-05-10T14:31:12.703Z,19.55
2023-05-10T14:33:41.553Z,19.62
2023-05-10T14:36:11.411Z,19.35
2023-05-10T14:38:39.475Z,19.03
2023-05-10T14:41:09.970Z,18.78
2023-05-10T14:43:39.246Z,18.67
2023-05-10T14:46:07.442Z,18.73
2023-05-10T14:48:36.378Z,18.74
2023-05-10T14:51:04.775Z,18.65
2023-05-10T14:53:33.710Z,18.50
2023-05-10T14:56:04.799Z,18.38
2023-05-10T14:58:34.093Z,18.26
2023-05-10T15:01:03.005Z,18.41
2023-05-10T15:03:32.031Z,18.50
2023-05-10T15:06:00.649Z,18.44
2023-05-10T15:08:28.881Z,18.13
2023-05-10T15:10:57.097Z,17.81
2023-05-10T15:13:25.176Z,17.49
2023-05-10T15:15:53.569Z,17.69
2023-05-10T15:18:23.617Z,17.58
2023-05-10T15:20:51.844Z,17.54
2023-05-10T15:23:20.027Z,17.77
2023-05-10T15:25:48.516Z,18.05
2023-05-10T15:28:16.869Z,18.24
2023-05-10T15:30:45.375Z,18.21
2023-05-10T15:33:13.731Z,17.97
2023-05-10T15:35:42.226Z,17.95
2023-05-10T15:38:11.068Z,17.85
2023-05-10T15:40:39.165Z,17.79
2023-05-10T15:43:07.563Z,17.54
2023-05-10T15:45:37.609Z,17.27
2023-05-10T15:48:06.306Z,17.21
2023-05-10T15:50:34.424Z,17.16
2023-05-10T15:53:02.496Z,17.12
2023-05-10T15:55:30.781Z,17.16
2023-05-10T15:57:59.061Z,17.30
2023-05-10T16:00:27.430Z,17.41
2023-05-10T16:02:55.489Z,17.48
2023-05-10T16:05:24.304Z,17.57
2023-05-10T16:07:52.434Z,17.55
2023-05-10T16:10:20.569Z,17.52
2023-05-10T16:12:49.532Z,17.47
2023-05-10T16:15:17.914Z,17.30
2023-05-10T16:17:46.760Z,17.24
2023-05-10T16:20:14.865Z,17.13
2023-05-10T16:22:44.591Z,16.91
2023-05-10T16:25:13.659Z,16.80
2023-05-10T16:27:43.214Z,16.77
2023-05-10T16:30:11.732Z,16.69
2023-05-10T16:32:39.881Z,16.67
2023-05-10T16:35:08.834Z,16.66
2023-05-10T16:37:37.446Z,16.62
2023-05-10T16:40:06.511Z,16.54
2023-05-10T16:42:34.691Z,16.47
2023-05-10T16:45:07.900Z,16.47
2023-05-10T16:47:37.151Z,16.45
2023-05-10T16:50:07.759Z,16.37
2023-05-10T16:52:37.318Z,16.34
2023-05-10T16:55:06.119Z,16.31
2023-05-10T16:57:35.466Z,16.24
2023-05-10T17:00:05.265Z,16.15
2023-05-10T17:02:33.463Z,16.08
2023-05-10T17:05:01.857Z,16.05
2023-05-10T17:07:30.634Z,15.99
2023-05-10T17:09:59.665Z,15.87
2023-05-10T17:12:28.143Z,15.74
2023-05-10T17:14:56.563Z,15.59
2023-05-10T17:17:25.323Z,15.54
2023-05-10T17:19:53.569Z,15.43
2023-05-10T17:22:21.934Z,15.34
2023-05-10T17:24:50.721Z,15.16
2023-05-10T17:27:18.902Z,15.03
2023-05-10T17:29:46.972Z,14.94
2023-05-10T17:32:14.979Z,14.80
2023-05-10T17:34:43.411Z,14.61
2023-05-10T17:37:12.215Z,14.51
2023-05-10T17:39:40.374Z,14.41
2023-05-10T17:42:08.748Z,14.31
2023-05-10T17:44:37.015Z,14.24
2023-05-10T17:47:06.421Z,14.15
2023-05-10T17:49:34.477Z,14.01
2023-05-10T17:52:02.605Z,13.89
2023-05-10T17:54:30.846Z,13.84
2023-05-10T17:57:01.065Z,13.85
2023-05-10T17:59:29.480Z,13.86
2023-05-10T18:01:58.030Z,13.86
2023-05-10T18:04:26.301Z,13.84
2023-05-10T18:07:01.367Z,13.77
2023-05-10T18:09:30.216Z,13.70
2023-05-10T18:11:58.398Z,13.68
2023-05-10T18:14:39.648Z,13.71
2023-05-10T18:17:10.093Z,13.75
2023-05-10T18:19:38.630Z,13.73
2023-05-10T18:22:10.449Z,13.69
2023-05-10T18:24:40.076Z,13.68
2023-05-10T18:27:09.494Z,13.65
2023-05-10T18:29:37.925Z,13.58
2023-05-10T18:32:06.799Z,13.50
2023-05-10T18:34:35.103Z,13.45
2023-05-10T18:37:07.904Z,13.34
2023-05-10T18:39:37.559Z,13.24
2023-05-10T18:42:06.003Z,13.17
2023-05-10T18:44:34.308Z,13.15
2023-05-10T18:47:02.489Z,13.16
2023-05-10T18:49:30.992Z,13.14
2023-05-10T18:51:59.150Z,13.16
2023-05-10T18:54:27.648Z,13.18
2023-05-10T18:56:57.623Z,13.19
2023-05-10T18:59:28.167Z,13.21
2023-05-10T19:01:57.465Z,13.20
2023-05-10T19:04:26.251Z,13.22
2023-05-10T19:06:56.074Z,13.19
2023-05-10T19:09:26.982Z,13.19
2023-05-10T19:11:55.307Z,13.19
2023-05-10T19:14:25.395Z,13.20
2023-05-10T19:16:54.465Z,13.22
2023-05-10T19:19:22.832Z,13.21
2023-05-10T19:21:51.170Z,13.19
2023-05-10T19:24:22.280Z,13.27
2023-05-10T19:26:50.586Z,13.33
2023-05-10T19:29:18.861Z,13.33
2023-05-10T19:31:47.366Z,13.33
2023-05-10T19:34:16.301Z,13.31
2023-05-10T19:36:45.102Z,13.33
2023-05-10T19:39:13.395Z,13.32
2023-05-10T19:41:41.775Z,13.28
2023-05-10T19:44:09.828Z,13.22
2023-05-10T19:46:38.077Z,13.14
2023-05-10T19:49:06.523Z,13.09
2023-05-10T19:51:34.776Z,13.12
2023-05-10T19:54:02.894Z,13.17
2023-05-10T19:56:31.123Z,13.19
2023-05-10T19:58:59.603Z,13.22
2023-05-10T20:01:27.722Z,13.23
2023-05-10T20:03:57.001Z,13.15
2023-05-10T20:06:25.246Z,13.10
2023-05-10T20:08:53.422Z,13.03
2023-05-10T20:11:21.908Z,13.05
2023-05-10T20:13:50.093Z,13.08
2023-05-10T20:16:18.541Z,13.14
2023-05-10T20:18:47.146Z,13.19
2023-05-10T20:21:15.424Z,13.14
2023-05-10T20:23:43.687Z,12.97
2023-05-10T20:26:12.708Z,12.86
2023-05-10T20:28:42.009Z,12.79
2023-05-10T20:31:10.256Z,12.73
2023-05-10T20:33:38.439Z,12.71
2023-05-10T20:36:09.551Z,12.71
2023-05-10T20:38:38.102Z,12.77
2023-05-10T20:41:06.432Z,12.78
2023-05-10T20:43:34.601Z,12.72
2023-05-10T20:46:05.522Z,12.73
2023-05-10T20:48:34.434Z,12.70
2023-05-10T20:51:02.784Z,12.70
2023-05-10T20:53:31.102Z,12.76
2023-05-10T20:55:59.362Z,12.79
2023-05-10T20:58:27.745Z,12.74
2023-05-10T21:00:55.774Z,12.79
2023-05-10T21:03:24.154Z,12.78
2023-05-10T21:05:52.249Z,12.54
2023-05-10T21:08:20.831Z,12.32
2023-05-10T21:10:49.036Z,12.20
2023-05-10T21:13:17.286Z,12.03
2023-05-10T21:15:45.464Z,11.82
2023-05-10T21:18:14.172Z,11.67
2023-05-10T21:20:42.416Z,11.58
2023-05-10T21:23:10.618Z,11.47
2023-05-10T21:25:38.869Z,11.35
2023-05-10T21:28:07.248Z,11.28
2023-05-10T21:30:35.537Z,11.23
2023-05-10T21:33:03.913Z,11.14
2023-05-10T21:35:32.288Z,11.04
2023-05-10T21:38:00.450Z,10.88
2023-05-10T21:40:29.153Z,10.81
2023-05-10T21:42:57.927Z,10.83
2023-05-10T21:45:26.222Z,10.86
2023-05-10T21:47:54.792Z,10.83
2023-05-10T21:50:23.065Z,10.92
2023-05-10T21:52:51.269Z,11.09
2023-05-10T21:55:19.646Z,11.20
2023-05-10T21:57:48.043Z,11.30
2023-05-10T22:00:19.202Z,11.34
2023-05-10T22:02:47.773Z,11.35
2023-05-10T22:05:16.314Z,11.31
2023-05-10T22:07:44.380Z,11.28
2023-05-10T22:10:12.543Z,11.28
2023-05-10T22:12:40.909Z,11.37
2023-05-10T22:15:10.747Z,11.42
2023-05-10T22:17:40.738Z,11.43
2023-05-10T22:20:09.813Z,11.36
2023-05-10T22:22:38.206Z,11.28
2023-05-10T22:25:07.804Z,11.13
2023-05-10T22:27:35.975Z,11.02
2023-05-10T22:30:05.195Z,10.94
2023-05-10T22:32:33.331Z,10.87
2023-05-10T22:35:01.436Z,10.76
2023-05-10T22:37:29.497Z,10.64
2023-05-10T22:39:57.767Z,10.56
2023-05-10T22:42:26.298Z,10.53
2023-05-10T22:44:54.367Z,10.50
2023-05-10T22:47:22.514Z,10.47
2023-05-10T22:49:50.676Z,10.52
2023-05-10T22:52:18.906Z,10.52
2023-05-10T22:54:47.302Z,10.51
2023-05-10T22:57:16.528Z,10.51
2023-05-10T22:59:44.791Z,10.46
2023-05-10T23:02:14.338Z,10.37
2023-05-10T23:04:42.501Z,10.41
2023-05-10T23:07:11.593Z,10.42
2023-05-10T23:09:40.022Z,10.45
2023-05-10T23:12:08.352Z,10.40
2023-05-10T23:14:36.403Z,10.34
2023-05-10T23:17:04.755Z,10.32
2023-05-10T23:19:32.792Z,10.35
2023-05-10T23:22:01.337Z,10.32
2023-05-10T23:24:29.502Z,10.31
2023-05-10T23:26:57.541Z,10.35
2023-05-10T23:29:26.559Z,10.38
2023-05-10T23:31:54.778Z,10.38
2023-05-10T23:34:22.843Z,10.29
2023-05-10T23:36:51.083Z,10.25
2023-05-10T23:39:19.283Z,10.25
2023-05-10T23:41:47.976Z,10.12
2023-05-10T23:44:16.758Z,10.00
2023-05-10T23:46:44.908Z,9.94
2023-05-10T23:49:13.034Z,9.94
2023-05-10T23:51:41.126Z,9.91
2023-05-10T23:54:09.497Z,9.85
2023-05-10T23:56:38.002Z,9.80
2023-05-10T23:59:06.178Z,9.81
